createdAt,value
2019-05-12T00:00:23.527Z,1023.73
2019-05-12T00:01:23.511Z,1023.70
2019-05-12T00:02:23.488Z,1023.70
2019-05-12T00:03:23.467Z,1023.65
2019-05-12T00:04:23.449Z,1023.63
2019-05-12T00:05:23.448Z,1023.64
2019-05-12T00:06:23.428Z,1023.64
2019-05-12T00:07:23.385Z,1023.65
2019-05-12T00:08:23.372Z,1023.70
2019-05-12T00:09:23.364Z,1023.73
2019-05-12T00:10:23.345Z,1023.69
2019-05-12T00:11:23.313Z,1023.72
2019-05-12T00:12:23.288Z,1023.70
2019-05-12T00:13:23.268Z,1023.72
2019-05-12T00:14:23.252Z,1023.73
2019-05-12T00:15:23.238Z,1023.72
2019-05-12T00:16:23.227Z,1023.75
2019-05-12T00:17:23.191Z,1023.83
2019-05-12T00:18:23.172Z,1023.80
2019-05-12T00:19:23.154Z,1023.83
2019-05-12T00:20:23.146Z,1023.83
2019-05-12T00:21:23.113Z,1023.80
2019-05-12T00:22:23.091Z,1023.82
2019-05-12T00:23:27.768Z,1023.85
2019-05-12T00:24:23.067Z,1023.84
2019-05-12T00:25:23.028Z,1023.80
2019-05-12T00:26:23.009Z,1023.82
2019-05-12T00:27:23.006Z,1023.83
2019-05-12T00:28:22.987Z,1023.83
2019-05-12T00:29:22.951Z,1023.88
2019-05-12T00:30:22.936Z,1023.87
2019-05-12T00:31:22.938Z,1023.88
2019-05-12T00:32:22.894Z,1023.90
2019-05-12T00:33:22.888Z,1023.92
2019-05-12T00:34:22.851Z,1023.93
2019-05-12T00:35:22.827Z,1023.97
2019-05-12T00:36:22.811Z,1023.97
2019-05-12T00:37:22.795Z,1024.01
2019-05-12T00:38:22.778Z,1024.01
2019-05-12T00:39:22.798Z,1024.00
2019-05-12T00:40:22.839Z,1024.03
2019-05-12T00:41:22.709Z,1024.05
2019-05-12T00:42:22.701Z,1024.06
2019-05-12T00:43:22.668Z,1024.12
2019-05-12T00:44:22.648Z,1024.16
2019-05-12T00:45:22.644Z,1024.17
2019-05-12T00:46:22.611Z,1024.24
2019-05-12T00:47:22.589Z,1024.24
2019-05-12T00:48:22.577Z,1024.25
2019-05-12T00:49:22.551Z,1024.23
2019-05-12T00:50:22.561Z,1024.25
2019-05-12T00:51:22.527Z,1024.30
2019-05-12T00:52:22.486Z,1024.36
2019-05-12T00:53:36.007Z,1024.35
2019-05-12T00:54:22.449Z,1024.37
2019-05-12T00:55:22.433Z,1024.43
2019-05-12T00:56:22.410Z,1024.41
2019-05-12T00:57:22.414Z,1024.41
2019-05-12T00:58:22.372Z,1024.44
2019-05-12T00:59:22.346Z,1024.41
2019-05-12T01:00:22.329Z,1024.44
2019-05-12T01:01:22.327Z,1024.42
2019-05-12T01:02:22.317Z,1024.41
2019-05-12T01:03:22.278Z,1024.38
2019-05-12T01:04:22.254Z,1024.39
2019-05-12T01:05:22.238Z,1024.41
2019-05-12T01:06:22.209Z,1024.37
2019-05-12T01:07:22.184Z,1024.39
2019-05-12T01:08:22.200Z,1024.41
2019-05-12T01:09:22.155Z,1024.45
2019-05-12T01:10:22.138Z,1024.46
2019-05-12T01:11:22.105Z,1024.52
2019-05-12T01:12:22.086Z,1024.52
2019-05-12T01:13:22.068Z,1024.54
2019-05-12T01:14:22.066Z,1024.54
2019-05-12T01:15:22.026Z,1024.52
2019-05-12T01:16:22.014Z,1024.53
2019-05-12T01:17:21.984Z,1024.59
2019-05-12T01:18:21.977Z,1024.58
2019-05-12T01:19:21.947Z,1024.61
2019-05-12T01:20:21.943Z,1024.60
2019-05-12T01:21:21.920Z,1024.62
2019-05-12T01:22:21.886Z,1024.63
2019-05-12T01:23:23.484Z,1024.64
2019-05-12T01:24:21.856Z,1024.65
2019-05-12T01:25:21.826Z,1024.64
2019-05-12T01:26:21.834Z,1024.66
2019-05-12T01:27:21.783Z,1024.63
2019-05-12T01:28:21.763Z,1024.65
2019-05-12T01:29:21.741Z,1024.66
2019-05-12T01:30:21.722Z,1024.67
2019-05-12T01:31:21.707Z,1024.70
2019-05-12T01:32:21.701Z,1024.68
2019-05-12T01:33:21.663Z,1024.73
2019-05-12T01:34:21.636Z,1024.78
2019-05-12T01:35:21.623Z,1024.76
2019-05-12T01:36:21.601Z,1024.78
2019-05-12T01:37:21.592Z,1024.82
2019-05-12T01:38:21.559Z,1024.83
2019-05-12T01:39:21.536Z,1024.88
2019-05-12T01:40:21.521Z,1024.84
2019-05-12T01:41:21.499Z,1024.86
2019-05-12T01:42:21.478Z,1024.89
2019-05-12T01:43:21.498Z,1024.86
2019-05-12T01:44:21.435Z,1024.90
2019-05-12T01:45:21.425Z,1024.91
2019-05-12T01:46:21.395Z,1024.92
2019-05-12T01:47:21.376Z,1024.94
2019-05-12T01:48:21.358Z,1024.96
2019-05-12T01:49:21.359Z,1024.99
2019-05-12T01:50:21.326Z,1025.01
2019-05-12T01:51:21.296Z,1025.04
2019-05-12T01:52:21.282Z,1025.05
2019-05-12T01:53:21.258Z,1025.04
2019-05-12T01:54:21.254Z,1025.05
2019-05-12T01:55:21.228Z,1025.04
2019-05-12T01:56:21.194Z,1025.08
2019-05-12T01:57:21.193Z,1025.08
2019-05-12T01:58:21.153Z,1025.10
2019-05-12T01:59:21.137Z,1025.15
2019-05-12T02:00:21.137Z,1025.17
2019-05-12T02:01:21.136Z,1025.21
2019-05-12T02:02:21.083Z,1025.23
2019-05-12T02:03:21.051Z,1025.23
2019-05-12T02:04:21.035Z,1025.27
2019-05-12T02:05:21.012Z,1025.28
2019-05-12T02:06:21.018Z,1025.30
2019-05-12T02:07:20.973Z,1025.29
2019-05-12T02:08:20.949Z,1025.30
2019-05-12T02:09:20.951Z,1025.28
2019-05-12T02:10:20.906Z,1025.28
2019-05-12T02:11:20.888Z,1025.28
2019-05-12T02:12:20.871Z,1025.28
2019-05-12T02:13:20.866Z,1025.32
2019-05-12T02:14:20.830Z,1025.33
2019-05-12T02:15:20.804Z,1025.39
2019-05-12T02:16:20.788Z,1025.37
2019-05-12T02:17:20.767Z,1025.36
2019-05-12T02:18:20.749Z,1025.37
2019-05-12T02:19:20.763Z,1025.38
2019-05-12T02:20:20.709Z,1025.39
2019-05-12T02:21:20.692Z,1025.42
2019-05-12T02:22:20.675Z,1025.43
2019-05-12T02:23:20.648Z,1025.50
2019-05-12T02:24:26.813Z,1025.52
2019-05-12T02:25:20.621Z,1025.49
2019-05-12T02:26:20.588Z,1025.54
2019-05-12T02:27:20.566Z,1025.57
2019-05-12T02:28:20.551Z,1025.55
2019-05-12T02:29:20.526Z,1025.59
2019-05-12T02:30:20.696Z,1025.59
2019-05-12T02:31:21.000Z,1025.59
2019-05-12T02:32:20.492Z,1025.61
2019-05-12T02:33:20.447Z,1025.62
2019-05-12T02:34:20.448Z,1025.62
2019-05-12T02:35:20.410Z,1025.59
2019-05-12T02:36:20.393Z,1025.69
2019-05-12T02:37:20.364Z,1025.63
2019-05-12T02:38:20.345Z,1025.65
2019-05-12T02:39:20.354Z,1025.65
2019-05-12T02:40:20.306Z,1025.65
2019-05-12T02:41:20.286Z,1025.68
2019-05-12T02:42:20.270Z,1025.66
2019-05-12T02:43:20.276Z,1025.73
2019-05-12T02:44:20.219Z,1025.71
2019-05-12T02:45:20.203Z,1025.72
2019-05-12T02:46:20.185Z,1025.77
2019-05-12T02:47:20.169Z,1025.81
2019-05-12T02:48:20.139Z,1025.81
2019-05-12T02:49:20.137Z,1025.85
2019-05-12T02:50:20.104Z,1025.87
2019-05-12T02:51:20.080Z,1025.88
2019-05-12T02:52:20.062Z,1025.87
2019-05-12T02:53:20.042Z,1025.85
2019-05-12T02:54:20.022Z,1025.88
2019-05-12T02:55:20.033Z,1025.90
2019-05-12T02:56:19.986Z,1025.86
2019-05-12T02:57:19.956Z,1025.88
2019-05-12T02:58:19.960Z,1025.93
2019-05-12T02:59:19.917Z,1025.98
2019-05-12T03:00:19.894Z,1025.97
2019-05-12T03:01:19.901Z,1026.03
2019-05-12T03:02:19.859Z,1026.04
2019-05-12T03:03:19.837Z,1026.07
2019-05-12T03:04:19.857Z,1026.10
2019-05-12T03:05:19.800Z,1026.09
2019-05-12T03:06:19.805Z,1026.12
2019-05-12T03:07:19.762Z,1026.14
2019-05-12T03:08:19.743Z,1026.14
2019-05-12T03:09:19.719Z,1026.11
2019-05-12T03:10:19.710Z,1026.14
2019-05-12T03:11:19.699Z,1026.14
2019-05-12T03:12:19.658Z,1026.12
2019-05-12T03:13:19.645Z,1026.13
2019-05-12T03:14:19.620Z,1026.14
2019-05-12T03:15:19.597Z,1026.12
2019-05-12T03:16:19.579Z,1026.11
2019-05-12T03:17:19.585Z,1026.14
2019-05-12T03:18:19.554Z,1026.13
2019-05-12T03:19:19.518Z,1026.14
2019-05-12T03:20:19.495Z,1026.14
2019-05-12T03:21:19.519Z,1026.15
2019-05-12T03:22:19.456Z,1026.20
2019-05-12T03:23:19.879Z,1026.17
2019-05-12T03:24:19.421Z,1026.19
2019-05-12T03:25:24.596Z,1026.23
2019-05-12T03:26:19.376Z,1026.22
2019-05-12T03:27:19.353Z,1026.22
2019-05-12T03:28:19.337Z,1026.20
2019-05-12T03:29:19.357Z,1026.23
2019-05-12T03:30:20.016Z,1026.30
2019-05-12T03:31:24.991Z,1026.31
2019-05-12T03:32:19.282Z,1026.31
2019-05-12T03:33:20.440Z,1026.29
2019-05-12T03:34:20.461Z,1026.34
2019-05-12T03:35:19.196Z,1026.37
2019-05-12T03:36:19.177Z,1026.42
2019-05-12T03:37:19.149Z,1026.41
2019-05-12T03:38:19.135Z,1026.42
2019-05-12T03:39:19.108Z,1026.47
2019-05-12T03:40:19.183Z,1026.49
2019-05-12T03:41:19.091Z,1026.53
2019-05-12T03:42:19.062Z,1026.56
2019-05-12T03:43:19.033Z,1026.55
2019-05-12T03:44:19.006Z,1026.56
2019-05-12T03:45:18.992Z,1026.60
2019-05-12T03:46:18.969Z,1026.64
2019-05-12T03:47:25.131Z,1026.68
2019-05-12T03:48:18.977Z,1026.66
2019-05-12T03:49:18.913Z,1026.67
2019-05-12T03:50:18.889Z,1026.68
2019-05-12T03:51:18.877Z,1026.66
2019-05-12T03:52:18.866Z,1026.72
2019-05-12T03:53:18.825Z,1026.69
2019-05-12T03:54:18.813Z,1026.75
2019-05-12T03:55:34.269Z,1026.73
2019-05-12T03:56:18.761Z,1026.77
2019-05-12T03:57:18.763Z,1026.76
2019-05-12T03:58:18.744Z,1026.80
2019-05-12T03:59:18.706Z,1026.79
2019-05-12T04:00:18.692Z,1026.82
2019-05-12T04:01:18.663Z,1026.82
2019-05-12T04:02:18.671Z,1026.84
2019-05-12T04:03:18.622Z,1026.86
2019-05-12T04:04:18.604Z,1026.89
2019-05-12T04:05:18.605Z,1026.89
2019-05-12T04:06:18.583Z,1026.92
2019-05-12T04:07:18.540Z,1026.91
2019-05-12T04:08:18.527Z,1026.94
2019-05-12T04:09:18.511Z,1026.91
2019-05-12T04:10:18.481Z,1026.92
2019-05-12T04:11:18.506Z,1026.93
2019-05-12T04:12:18.438Z,1026.92
2019-05-12T04:13:18.423Z,1026.95
2019-05-12T04:14:18.459Z,1026.99
2019-05-12T04:15:18.384Z,1026.99
2019-05-12T04:16:18.361Z,1026.95
2019-05-12T04:17:18.358Z,1026.98
2019-05-12T04:18:18.319Z,1027.02
2019-05-12T04:19:18.304Z,1027.00
2019-05-12T04:20:18.282Z,1027.04
2019-05-12T04:21:18.259Z,1027.02
2019-05-12T04:22:18.260Z,1027.05
2019-05-12T04:23:18.236Z,1027.08
2019-05-12T04:24:18.196Z,1027.14
2019-05-12T04:25:18.180Z,1027.10
2019-05-12T04:26:18.163Z,1027.12
2019-05-12T04:27:18.140Z,1027.15
2019-05-12T04:28:18.116Z,1027.17
2019-05-12T04:29:18.119Z,1027.17
2019-05-12T04:30:18.077Z,1027.22
2019-05-12T04:31:18.100Z,1027.24
2019-05-12T04:32:18.036Z,1027.28
2019-05-12T04:33:18.016Z,1027.25
2019-05-12T04:34:19.217Z,1027.28
2019-05-12T04:35:17.978Z,1027.32
2019-05-12T04:36:17.954Z,1027.34
2019-05-12T04:37:17.953Z,1027.34
2019-05-12T04:38:17.919Z,1027.32
2019-05-12T04:39:17.896Z,1027.34
2019-05-12T04:40:17.877Z,1027.31
2019-05-12T04:41:19.970Z,1027.35
2019-05-12T04:42:17.834Z,1027.37
2019-05-12T04:43:17.830Z,1027.37
2019-05-12T04:44:17.796Z,1027.39
2019-05-12T04:45:17.772Z,1027.42
2019-05-12T04:46:17.750Z,1027.40
2019-05-12T04:47:17.753Z,1027.42
2019-05-12T04:48:21.297Z,1027.44
2019-05-12T04:49:17.715Z,1027.45
2019-05-12T04:50:17.673Z,1027.46
2019-05-12T04:51:17.673Z,1027.50
2019-05-12T04:52:17.628Z,1027.49
2019-05-12T04:53:17.652Z,1027.49
2019-05-12T04:54:17.601Z,1027.52
2019-05-12T04:55:17.569Z,1027.54
2019-05-12T04:56:20.561Z,1027.54
2019-05-12T04:57:20.972Z,1027.57
2019-05-12T04:58:17.508Z,1027.57
2019-05-12T04:59:17.492Z,1027.61
2019-05-12T05:00:17.482Z,1027.61
2019-05-12T05:01:17.458Z,1027.63
2019-05-12T05:02:17.433Z,1027.68
2019-05-12T05:03:17.410Z,1027.70
2019-05-12T05:04:17.405Z,1027.71
2019-05-12T05:05:17.398Z,1027.73
2019-05-12T05:06:17.356Z,1027.75
2019-05-12T05:07:17.348Z,1027.78
2019-05-12T05:08:19.775Z,1027.78
2019-05-12T05:09:17.293Z,1027.81
2019-05-12T05:10:17.276Z,1027.81
2019-05-12T05:11:17.246Z,1027.86
2019-05-12T05:12:17.266Z,1027.92
2019-05-12T05:13:17.215Z,1027.98
2019-05-12T05:14:17.193Z,1028.02
2019-05-12T05:15:17.168Z,1028.01
2019-05-12T05:16:17.156Z,1028.01
2019-05-12T05:17:17.130Z,1028.03
2019-05-12T05:18:17.123Z,1028.04
2019-05-12T05:19:17.273Z,1028.02
2019-05-12T05:20:17.073Z,1028.07
2019-05-12T05:21:17.048Z,1028.12
2019-05-12T05:22:17.030Z,1028.07
2019-05-12T05:23:17.026Z,1028.13
2019-05-12T05:24:17.000Z,1028.17
2019-05-12T05:25:16.968Z,1028.19
2019-05-12T05:26:24.389Z,1028.22
2019-05-12T05:27:16.930Z,1028.27
2019-05-12T05:28:16.913Z,1028.26
2019-05-12T05:29:16.888Z,1028.24
2019-05-12T05:30:16.885Z,1028.26
2019-05-12T05:31:16.848Z,1028.27
2019-05-12T05:32:16.826Z,1028.28
2019-05-12T05:33:19.785Z,1028.33
2019-05-12T05:34:16.861Z,1028.38
2019-05-12T05:35:16.769Z,1028.39
2019-05-12T05:36:19.809Z,1028.43
2019-05-12T05:37:16.731Z,1028.39
2019-05-12T05:38:20.592Z,1028.42
2019-05-12T05:39:16.698Z,1028.41
2019-05-12T05:40:19.926Z,1028.42
2019-05-12T05:41:16.674Z,1028.43
2019-05-12T05:42:16.628Z,1028.45
2019-05-12T05:43:18.411Z,1028.45
2019-05-12T05:44:16.585Z,1028.41
2019-05-12T05:45:22.130Z,1028.45
2019-05-12T05:46:16.572Z,1028.44
2019-05-12T05:47:19.768Z,1028.44
2019-05-12T05:48:16.509Z,1028.47
2019-05-12T05:49:16.488Z,1028.51
2019-05-12T05:50:18.548Z,1028.54
2019-05-12T05:51:16.447Z,1028.58
2019-05-12T05:52:16.437Z,1028.57
2019-05-12T05:53:19.627Z,1028.60
2019-05-12T05:54:16.387Z,1028.59
2019-05-12T05:55:20.134Z,1028.62
2019-05-12T05:56:18.290Z,1028.59
2019-05-12T05:57:20.101Z,1028.57
2019-05-12T05:58:16.320Z,1028.58
2019-05-12T05:59:16.288Z,1028.58
2019-05-12T06:00:21.687Z,1028.56
2019-05-12T06:01:16.254Z,1028.54
2019-05-12T06:02:16.256Z,1028.59
2019-05-12T06:03:22.966Z,1028.58
2019-05-12T06:04:16.215Z,1028.57
2019-05-12T06:05:20.027Z,1028.59
2019-05-12T06:06:16.156Z,1028.57
2019-05-12T06:07:16.135Z,1028.61
2019-05-12T06:08:20.631Z,1028.62
2019-05-12T06:09:16.096Z,1028.65
2019-05-12T06:10:16.077Z,1028.64
2019-05-12T06:11:23.929Z,1028.68
2019-05-12T06:12:16.039Z,1028.71
2019-05-12T06:13:16.013Z,1028.70
2019-05-12T06:14:16.342Z,1028.73
2019-05-12T06:15:15.979Z,1028.76
2019-05-12T06:16:20.640Z,1028.72
2019-05-12T06:17:15.936Z,1028.72
2019-05-12T06:18:15.930Z,1028.75
2019-05-12T06:19:15.899Z,1028.72
2019-05-12T06:20:15.879Z,1028.73
2019-05-12T06:21:15.878Z,1028.78
2019-05-12T06:22:18.437Z,1028.81
2019-05-12T06:23:15.823Z,1028.83
2019-05-12T06:24:20.061Z,1028.86
2019-05-12T06:25:16.426Z,1028.87
2019-05-12T06:26:20.976Z,1028.90
2019-05-12T06:27:20.776Z,1028.89
2019-05-12T06:28:15.727Z,1028.88
2019-05-12T06:29:20.276Z,1028.86
2019-05-12T06:30:15.687Z,1028.89
2019-05-12T06:31:19.004Z,1028.93
2019-05-12T06:32:15.667Z,1028.94
2019-05-12T06:33:15.629Z,1028.96
2019-05-12T06:34:20.624Z,1028.93
2019-05-12T06:35:15.595Z,1028.95
2019-05-12T06:36:21.983Z,1028.98
2019-05-12T06:37:17.134Z,1028.94
2019-05-12T06:38:15.529Z,1028.95
2019-05-12T06:39:19.371Z,1028.95
2019-05-12T06:40:15.494Z,1028.98
2019-05-12T06:41:20.480Z,1029.00
2019-05-12T06:42:16.943Z,1029.00
2019-05-12T06:43:15.449Z,1029.01
2019-05-12T06:44:19.432Z,1029.00
2019-05-12T06:45:15.400Z,1029.03
2019-05-12T06:46:21.064Z,1029.00
2019-05-12T06:47:15.357Z,1029.07
2019-05-12T06:48:19.227Z,1029.05
2019-05-12T06:49:17.452Z,1029.07
2019-05-12T06:50:15.308Z,1029.06
2019-05-12T06:51:22.164Z,1029.12
2019-05-12T06:52:15.281Z,1029.09
2019-05-12T06:53:15.249Z,1029.15
2019-05-12T06:54:15.333Z,1029.14
2019-05-12T06:55:15.213Z,1029.17
2019-05-12T06:56:19.631Z,1029.17
2019-05-12T06:57:24.189Z,1029.21
2019-05-12T06:58:15.168Z,1029.20
2019-05-12T06:59:15.137Z,1029.25
2019-05-12T07:00:15.135Z,1029.25
2019-05-12T07:01:19.372Z,1029.21
2019-05-12T07:02:15.086Z,1029.23
2019-05-12T07:03:19.330Z,1029.25
2019-05-12T07:04:15.062Z,1029.25
2019-05-12T07:05:15.032Z,1029.22
2019-05-12T07:06:19.707Z,1029.24
2019-05-12T07:07:14.982Z,1029.24
2019-05-12T07:08:20.114Z,1029.29
2019-05-12T07:09:24.193Z,1029.31
2019-05-12T07:10:34.313Z,1029.34
2019-05-12T07:11:14.933Z,1029.32
2019-05-12T07:12:14.896Z,1029.35
2019-05-12T07:13:23.245Z,1029.31
2019-05-12T07:14:22.665Z,1029.33
2019-05-12T07:15:14.872Z,1029.32
2019-05-12T07:16:16.713Z,1029.40
2019-05-12T07:17:14.854Z,1029.39
2019-05-12T07:18:17.207Z,1029.42
2019-05-12T07:19:21.002Z,1029.42
2019-05-12T07:20:14.897Z,1029.45
2019-05-12T07:21:19.452Z,1029.37
2019-05-12T07:22:22.367Z,1029.36
2019-05-12T07:23:19.851Z,1029.37
2019-05-12T07:24:14.688Z,1029.37
2019-05-12T07:25:14.653Z,1029.37
2019-05-12T07:26:19.459Z,1029.36
2019-05-12T07:27:14.630Z,1029.38
2019-05-12T07:28:14.632Z,1029.37
2019-05-12T07:29:14.603Z,1029.34
2019-05-12T07:30:14.584Z,1029.40
2019-05-12T07:31:14.541Z,1029.39
2019-05-12T07:32:19.894Z,1029.38
2019-05-12T07:33:14.770Z,1029.41
2019-05-12T07:34:14.510Z,1029.38
2019-05-12T07:35:14.829Z,1029.44
2019-05-12T07:36:14.449Z,1029.44
2019-05-12T07:37:15.306Z,1029.44
2019-05-12T07:38:20.860Z,1029.44
2019-05-12T07:39:14.398Z,1029.39
2019-05-12T07:40:18.844Z,1029.45
2019-05-12T07:41:14.523Z,1029.49
2019-05-12T07:42:14.342Z,1029.50
2019-05-12T07:43:16.348Z,1029.56
2019-05-12T07:44:14.354Z,1029.54
2019-05-12T07:45:20.632Z,1029.58
2019-05-12T07:46:14.284Z,1029.59
2019-05-12T07:47:19.071Z,1029.60
2019-05-12T07:48:14.234Z,1029.54
2019-05-12T07:49:14.221Z,1029.57
2019-05-12T07:50:16.177Z,1029.64
2019-05-12T07:51:14.186Z,1029.58
2019-05-12T07:52:14.160Z,1029.61
2019-05-12T07:53:14.621Z,1029.64
2019-05-12T07:54:14.380Z,1029.65
2019-05-12T07:55:14.793Z,1029.66
2019-05-12T07:56:14.524Z,1029.69
2019-05-12T07:57:17.345Z,1029.69
2019-05-12T07:58:18.716Z,1029.71
2019-05-12T07:59:14.060Z,1029.65
2019-05-12T08:00:21.151Z,1029.66
2019-05-12T08:01:14.582Z,1029.68
2019-05-12T08:02:14.326Z,1029.68
2019-05-12T08:03:19.115Z,1029.72
2019-05-12T08:04:13.971Z,1029.75
2019-05-12T08:05:19.432Z,1029.72
2019-05-12T08:06:14.287Z,1029.75
2019-05-12T08:07:14.501Z,1029.71
2019-05-12T08:08:14.509Z,1029.72
2019-05-12T08:09:13.844Z,1029.72
2019-05-12T08:10:19.655Z,1029.76
2019-05-12T08:11:14.962Z,1029.75
2019-05-12T08:12:19.473Z,1029.74
2019-05-12T08:13:14.811Z,1029.71
2019-05-12T08:14:24.699Z,1029.72
2019-05-12T08:15:14.198Z,1029.73
2019-05-12T08:16:14.358Z,1029.70
2019-05-12T08:17:18.849Z,1029.75
2019-05-12T08:18:14.119Z,1029.73
2019-05-12T08:19:23.309Z,1029.75
2019-05-12T08:20:13.696Z,1029.74
2019-05-12T08:21:14.135Z,1029.74
2019-05-12T08:22:13.673Z,1029.70
2019-05-12T08:23:14.119Z,1029.71
2019-05-12T08:24:14.373Z,1029.70
2019-05-12T08:25:13.689Z,1029.63
2019-05-12T08:26:18.276Z,1029.69
2019-05-12T08:27:14.299Z,1029.71
2019-05-12T08:28:18.216Z,1029.72
2019-05-12T08:29:16.909Z,1029.71
2019-05-12T08:30:13.936Z,1029.76
2019-05-12T08:31:14.103Z,1029.73
2019-05-12T08:32:15.972Z,1029.74
2019-05-12T08:33:14.663Z,1029.77
2019-05-12T08:34:13.732Z,1029.76
2019-05-12T08:35:13.925Z,1029.78
2019-05-12T08:36:16.338Z,1029.80
2019-05-12T08:37:13.943Z,1029.78
2019-05-12T08:38:14.483Z,1029.81
2019-05-12T08:39:21.063Z,1029.80
2019-05-12T08:40:15.365Z,1029.79
2019-05-12T08:41:14.631Z,1029.82
2019-05-12T08:42:14.505Z,1029.89
2019-05-12T08:43:14.895Z,1029.85
2019-05-12T08:44:13.595Z,1029.85
2019-05-12T08:45:23.963Z,1029.87
2019-05-12T08:46:15.570Z,1029.85
2019-05-12T08:47:15.157Z,1029.89
2019-05-12T08:48:19.233Z,1029.79
2019-05-12T08:49:14.362Z,1029.85
2019-05-12T08:50:13.857Z,1029.88
2019-05-12T08:51:14.524Z,1029.82
2019-05-12T08:52:14.216Z,1029.84
2019-05-12T08:53:20.350Z,1029.83
2019-05-12T08:54:14.241Z,1029.86
2019-05-12T08:55:16.312Z,1029.88
2019-05-12T08:56:18.981Z,1029.83
2019-05-12T08:57:14.298Z,1029.89
2019-05-12T08:58:29.596Z,1029.87
2019-05-12T08:59:17.505Z,1029.84
2019-05-12T09:00:13.457Z,1029.86
2019-05-12T09:01:13.814Z,1029.81
2019-05-12T09:02:13.944Z,1029.85
2019-05-12T09:03:14.173Z,1029.82
2019-05-12T09:04:17.956Z,1029.84
2019-05-12T09:05:14.405Z,1029.85
2019-05-12T09:06:15.454Z,1029.89
2019-05-12T09:07:13.838Z,1029.88
2019-05-12T09:08:13.787Z,1029.88
2019-05-12T09:09:13.980Z,1029.91
2019-05-12T09:10:14.301Z,1029.92
2019-05-12T09:11:13.964Z,1029.97
2019-05-12T09:12:14.030Z,1029.98
2019-05-12T09:13:14.452Z,1029.86
2019-05-12T09:14:14.637Z,1029.88
2019-05-12T09:15:13.603Z,1029.91
2019-05-12T09:16:13.825Z,1029.98
2019-05-12T09:17:13.837Z,1030.00
2019-05-12T09:18:14.489Z,1030.01
2019-05-12T09:19:16.634Z,1030.07
2019-05-12T09:20:13.687Z,1030.13
2019-05-12T09:21:14.082Z,1030.14
2019-05-12T09:22:16.831Z,1030.13
2019-05-12T09:31:29.559Z,1030.26
2019-05-12T09:32:20.558Z,1030.29
2019-05-12T09:33:26.296Z,1030.22
2019-05-12T09:34:20.539Z,1030.26
2019-05-12T09:35:20.531Z,1030.22
2019-05-12T09:36:21.753Z,1030.20
2019-05-12T09:37:20.521Z,1030.14
2019-05-12T09:38:23.119Z,1030.13
2019-05-12T09:39:20.465Z,1030.17
2019-05-12T09:40:21.051Z,1030.21
2019-05-12T09:41:21.049Z,1030.27
2019-05-12T09:42:25.567Z,1030.18
2019-05-12T09:43:20.455Z,1030.20
2019-05-12T09:44:25.579Z,1030.19
2019-05-12T09:45:20.396Z,1030.23
2019-05-12T09:46:20.428Z,1030.24
2019-05-12T09:47:25.214Z,1030.24
2019-05-12T09:48:20.363Z,1030.29
2019-05-12T09:49:22.737Z,1030.33
2019-05-12T09:50:20.639Z,1030.38
2019-05-12T09:51:20.328Z,1030.24
2019-05-12T09:52:23.277Z,1030.24
2019-05-12T09:53:20.350Z,1030.22
2019-05-12T09:54:26.189Z,1030.24
2019-05-12T09:55:22.104Z,1030.28
2019-05-12T09:56:20.292Z,1030.20
2019-05-12T09:57:20.285Z,1030.23
2019-05-12T09:58:25.753Z,1030.40
2019-05-12T09:59:23.157Z,1030.38
2019-05-12T10:00:20.261Z,1030.33
2019-05-12T10:01:20.232Z,1030.37
2019-05-12T10:02:20.948Z,1030.38
2019-05-12T10:03:20.204Z,1030.35
2019-05-12T10:04:20.215Z,1030.42
2019-05-12T10:05:20.221Z,1030.31
2019-05-12T10:06:21.450Z,1030.33
2019-05-12T10:07:20.156Z,1030.41
2019-05-12T10:08:20.156Z,1030.40
2019-05-12T10:09:20.160Z,1030.37
2019-05-12T10:10:20.119Z,1030.43
2019-05-12T10:11:20.969Z,1030.47
2019-05-12T10:12:20.096Z,1030.50
2019-05-12T10:13:25.094Z,1030.51
2019-05-12T10:14:20.100Z,1030.57
2019-05-12T10:15:24.737Z,1030.54
2019-05-12T10:16:20.050Z,1030.56
2019-05-12T10:17:25.119Z,1030.52
2019-05-12T10:18:20.013Z,1030.48
2019-05-12T10:19:20.009Z,1030.52
2019-05-12T10:20:21.652Z,1030.50
2019-05-12T10:21:19.988Z,1030.51
2019-05-12T10:22:19.973Z,1030.48
2019-05-12T10:23:24.130Z,1030.47
2019-05-12T10:24:19.945Z,1030.48
2019-05-12T10:25:23.252Z,1030.40
2019-05-12T10:26:19.930Z,1030.46
2019-05-12T10:27:20.995Z,1030.46
2019-05-12T10:28:19.915Z,1030.44
2019-05-12T10:29:20.989Z,1030.36
2019-05-12T10:30:19.882Z,1030.38
2019-05-12T10:31:19.854Z,1030.40
2019-05-12T10:32:19.847Z,1030.40
2019-05-12T10:33:19.836Z,1030.47
2019-05-12T10:34:19.821Z,1030.38
2019-05-12T10:35:21.336Z,1030.40
2019-05-12T10:36:19.817Z,1030.38
2019-05-12T10:37:25.258Z,1030.32
2019-05-12T10:38:19.777Z,1030.43
2019-05-12T10:39:19.755Z,1030.45
2019-05-12T10:40:19.746Z,1030.44
2019-05-12T10:41:19.748Z,1030.42
2019-05-12T10:42:19.738Z,1030.38
2019-05-12T10:43:19.708Z,1030.51
2019-05-12T10:44:19.717Z,1030.51
2019-05-12T10:45:20.736Z,1030.50
2019-05-12T10:46:26.793Z,1030.37
2019-05-12T10:47:19.671Z,1030.40
2019-05-12T10:48:19.651Z,1030.44
2019-05-12T10:49:19.637Z,1030.48
2019-05-12T10:50:19.650Z,1030.47
2019-05-12T10:51:23.715Z,1030.46
2019-05-12T10:52:19.589Z,1030.43
2019-05-12T10:53:19.646Z,1030.36
2019-05-12T10:54:19.621Z,1030.44
2019-05-12T10:55:19.555Z,1030.44
2019-05-12T10:56:19.541Z,1030.47
2019-05-12T10:57:19.527Z,1030.54
2019-05-12T10:58:19.527Z,1030.53
2019-05-12T10:59:30.151Z,1030.45
2019-05-12T11:00:24.591Z,1030.51
2019-05-12T11:01:19.466Z,1030.55
2019-05-12T11:02:20.588Z,1030.55
2019-05-12T11:03:19.445Z,1030.52
2019-05-12T11:04:23.442Z,1030.51
2019-05-12T11:05:25.843Z,1030.51
2019-05-12T11:06:19.409Z,1030.50
2019-05-12T11:07:23.001Z,1030.52
2019-05-12T11:08:19.378Z,1030.47
2019-05-12T11:09:21.319Z,1030.39
2019-05-12T11:10:20.228Z,1030.43
2019-05-12T11:11:19.333Z,1030.36
2019-05-12T11:12:24.401Z,1030.38
2019-05-12T11:13:19.307Z,1030.50
2019-05-12T11:14:20.227Z,1030.45
2019-05-12T11:15:19.276Z,1030.40
2019-05-12T11:16:22.776Z,1030.42
2019-05-12T11:17:19.248Z,1030.44
2019-05-12T11:18:20.526Z,1030.40
2019-05-12T11:19:19.229Z,1030.48
2019-05-12T11:20:20.039Z,1030.52
2019-05-12T11:21:19.221Z,1030.53
2019-05-12T11:22:19.226Z,1030.56
2019-05-12T11:23:19.165Z,1030.56
2019-05-12T11:24:20.040Z,1030.59
2019-05-12T11:25:19.138Z,1030.58
2019-05-12T11:26:25.146Z,1030.50
2019-05-12T11:27:19.114Z,1030.49
2019-05-12T11:28:19.125Z,1030.50
2019-05-12T11:29:19.102Z,1030.54
2019-05-12T11:30:19.078Z,1030.54
2019-05-12T11:31:20.043Z,1030.63
2019-05-12T11:32:19.045Z,1030.58
2019-05-12T11:33:19.159Z,1030.66
2019-05-12T11:34:19.029Z,1030.63
2019-05-12T11:35:19.019Z,1030.66
2019-05-12T11:36:18.988Z,1030.64
2019-05-12T11:37:18.987Z,1030.64
2019-05-12T11:38:18.951Z,1030.64
2019-05-12T11:39:18.971Z,1030.69
2019-05-12T11:40:18.931Z,1030.67
2019-05-12T11:41:20.277Z,1030.68
2019-05-12T11:42:18.905Z,1030.72
2019-05-12T11:43:18.881Z,1030.69
2019-05-12T11:44:18.876Z,1030.67
2019-05-12T11:45:18.889Z,1030.69
2019-05-12T11:46:18.846Z,1030.65
2019-05-12T11:47:24.427Z,1030.60
2019-05-12T11:48:18.822Z,1030.55
2019-05-12T11:49:21.720Z,1030.57
2019-05-12T11:50:18.783Z,1030.57
2019-05-12T11:51:20.715Z,1030.63
2019-05-12T11:52:19.497Z,1030.63
2019-05-12T11:53:21.920Z,1030.65
2019-05-12T11:54:18.724Z,1030.63
2019-05-12T11:55:21.447Z,1030.68
2019-05-12T11:56:18.704Z,1030.68
2019-05-12T11:57:20.072Z,1030.61
2019-05-12T11:58:18.670Z,1030.61
2019-05-12T11:59:18.689Z,1030.65
2019-05-12T12:00:18.649Z,1030.62
2019-05-12T12:01:18.633Z,1030.61
2019-05-12T12:02:20.098Z,1030.64
2019-05-12T12:03:18.688Z,1030.60
2019-05-12T12:04:19.582Z,1030.58
2019-05-12T12:05:18.613Z,1030.66
2019-05-12T12:06:18.566Z,1030.65
2019-05-12T12:07:18.565Z,1030.56
2019-05-12T12:08:18.541Z,1030.61
2019-05-12T12:09:19.036Z,1030.62
2019-05-12T12:10:18.512Z,1030.57
2019-05-12T12:11:24.518Z,1030.51
2019-05-12T12:12:18.490Z,1030.60
2019-05-12T12:13:19.250Z,1030.69